sensor_id;sensor_type;location;lat;lon;timestamp;temperature;humidity
24254;DHT22;12381;51.152;4.172;2022-08-02T00:00:12;21.70;97.50
24254;DHT22;12381;51.152;4.172;2022-08-02T00:02:42;21.70;97.30
24254;DHT22;12381;51.152;4.172;2022-08-02T00:05:09;21.60;97.40
24254;DHT22;12381;51.152;4.172;2022-08-02T00:07:35;21.60;97.40
24254;DHT22;12381;51.152;4.172;2022-08-02T00:10:01;21.60;97.40
24254;DHT22;12381;51.152;4.172;2022-08-02T00:12:27;21.60;97.70
24254;DHT22;12381;51.152;4.172;2022-08-02T00:14:53;21.60;97.70
24254;DHT22;12381;51.152;4.172;2022-08-02T00:17:18;21.50;97.70
24254;DHT22;12381;51.152;4.172;2022-08-02T00:19:44;21.50;97.70
24254;DHT22;12381;51.152;4.172;2022-08-02T00:22:10;21.50;97.70
24254;DHT22;12381;51.152;4.172;2022-08-02T00:24:36;21.50;98.00
24254;DHT22;12381;51.152;4.172;2022-08-02T00:27:02;21.50;98.00
24254;DHT22;12381;51.152;4.172;2022-08-02T00:29:29;21.40;97.90
24254;DHT22;12381;51.152;4.172;2022-08-02T00:31:55;21.50;98.00
24254;DHT22;12381;51.152;4.172;2022-08-02T00:34:21;21.50;98.10
24254;DHT22;12381;51.152;4.172;2022-08-02T00:36:47;21.50;98.10
24254;DHT22;12381;51.152;4.172;2022-08-02T00:39:13;21.50;98.20
24254;DHT22;12381;51.152;4.172;2022-08-02T00:41:50;21.50;98.40
24254;DHT22;12381;51.152;4.172;2022-08-02T00:44:17;21.40;98.50
24254;DHT22;12381;51.152;4.172;2022-08-02T00:46:43;21.40;98.90
24254;DHT22;12381;51.152;4.172;2022-08-02T00:49:10;21.30;98.90
24254;DHT22;12381;51.152;4.172;2022-08-02T00:51:36;21.40;98.80
24254;DHT22;12381;51.152;4.172;2022-08-02T00:54:01;21.30;99.00
24254;DHT22;12381;51.152;4.172;2022-08-02T00:56:27;21.40;99.00
24254;DHT22;12381;51.152;4.172;2022-08-02T00:58:53;21.40;99.10
24254;DHT22;12381;51.152;4.172;2022-08-02T01:01:19;21.30;99.20
24254;DHT22;12381;51.152;4.172;2022-08-02T01:03:44;21.40;99.00
24254;DHT22;12381;51.152;4.172;2022-08-02T01:06:10;21.40;99.10
24254;DHT22;12381;51.152;4.172;2022-08-02T01:08:39;21.40;99.30
24254;DHT22;12381;51.152;4.172;2022-08-02T01:11:12;21.30;99.10
24254;DHT22;12381;51.152;4.172;2022-08-02T01:13:37;21.30;99.40
24254;DHT22;12381;51.152;4.172;2022-08-02T01:16:11;21.20;99.50
24254;DHT22;12381;51.152;4.172;2022-08-02T01:18:42;21.20;99.60
24254;DHT22;12381;51.152;4.172;2022-08-02T01:21:53;21.30;99.90
24254;DHT22;12381;51.152;4.172;2022-08-02T01:26:54;21.20;99.70
24254;DHT22;12381;51.152;4.172;2022-08-02T01:29:29;21.20;99.70
24254;DHT22;12381;51.152;4.172;2022-08-02T01:32:11;21.20;99.70
24254;DHT22;12381;51.152;4.172;2022-08-02T01:37:14;21.20;99.90
24254;DHT22;12381;51.152;4.172;2022-08-02T01:39:42;21.20;99.90
24254;DHT22;12381;51.152;4.172;2022-08-02T01:42:09;21.20;99.70
24254;DHT22;12381;51.152;4.172;2022-08-02T01:44:37;21.20;99.90
24254;DHT22;12381;51.152;4.172;2022-08-02T01:47:13;21.10;99.90
24254;DHT22;12381;51.152;4.172;2022-08-02T01:49:41;21.20;99.90
24254;DHT22;12381;51.152;4.172;2022-08-02T01:52:10;21.10;99.90
24254;DHT22;12381;51.152;4.172;2022-08-02T01:57:48;21.00;99.90
24254;DHT22;12381;51.152;4.172;2022-08-02T02:00:15;21.10;99.90
24254;DHT22;12381;51.152;4.172;2022-08-02T02:02:43;21.10;99.90
24254;DHT22;12381;51.152;4.172;2022-08-02T02:05:17;21.10;99.90
24254;DHT22;12381;51.152;4.172;2022-08-02T02:07:45;21.10;99.90
24254;DHT22;12381;51.152;4.172;2022-08-02T02:10:18;21.00;99.90
24254;DHT22;12381;51.152;4.172;2022-08-02T02:12:48;20.90;99.90
24254;DHT22;12381;51.152;4.172;2022-08-02T02:15:14;20.80;99.90
24254;DHT22;12381;51.152;4.172;2022-08-02T02:17:43;20.80;99.90
24254;DHT22;12381;51.152;4.172;2022-08-02T02:20:14;20.70;99.90
24254;DHT22;12381;51.152;4.172;2022-08-02T02:22:42;20.70;99.90
24254;DHT22;12381;51.152;4.172;2022-08-02T02:25:09;20.70;99.90
24254;DHT22;12381;51.152;4.172;2022-08-02T02:27:36;20.70;99.90
24254;DHT22;12381;51.152;4.172;2022-08-02T02:30:03;20.60;99.90
24254;DHT22;12381;51.152;4.172;2022-08-02T02:32:30;20.50;99.90
24254;DHT22;12381;51.152;4.172;2022-08-02T02:34:58;20.60;99.90
24254;DHT22;12381;51.152;4.172;2022-08-02T02:37:25;20.40;99.90
24254;DHT22;12381;51.152;4.172;2022-08-02T02:39:54;20.40;99.90
24254;DHT22;12381;51.152;4.172;2022-08-02T02:42:24;20.40;99.90
24254;DHT22;12381;51.152;4.172;2022-08-02T02:44:53;20.40;99.90
24254;DHT22;12381;51.152;4.172;2022-08-02T02:47:19;20.30;99.90
24254;DHT22;12381;51.152;4.172;2022-08-02T02:49:47;20.30;99.90
24254;DHT22;12381;51.152;4.172;2022-08-02T02:52:15;20.30;99.90
24254;DHT22;12381;51.152;4.172;2022-08-02T02:54:42;20.40;99.90
24254;DHT22;12381;51.152;4.172;2022-08-02T02:57:09;20.30;99.90
24254;DHT22;12381;51.152;4.172;2022-08-02T02:59:37;20.20;99.90
24254;DHT22;12381;51.152;4.172;2022-08-02T03:02:04;20.40;99.90
24254;DHT22;12381;51.152;4.172;2022-08-02T03:04:30;20.30;99.90
24254;DHT22;12381;51.152;4.172;2022-08-02T03:06:57;20.20;99.90
24254;DHT22;12381;51.152;4.172;2022-08-02T03:09:24;20.20;99.90
24254;DHT22;12381;51.152;4.172;2022-08-02T03:11:50;20.20;99.90
24254;DHT22;12381;51.152;4.172;2022-08-02T03:14:17;20.20;99.90
24254;DHT22;12381;51.152;4.172;2022-08-02T03:16:45;20.20;99.90
24254;DHT22;12381;51.152;4.172;2022-08-02T03:19:11;20.20;99.90
24254;DHT22;12381;51.152;4.172;2022-08-02T03:21:37;20.30;99.90
24254;DHT22;12381;51.152;4.172;2022-08-02T03:24:04;20.30;99.90
24254;DHT22;12381;51.152;4.172;2022-08-02T03:26:29;20.30;99.90
24254;DHT22;12381;51.152;4.172;2022-08-02T03:28:55;20.30;99.90
24254;DHT22;12381;51.152;4.172;2022-08-02T03:31:21;20.30;99.90
24254;DHT22;12381;51.152;4.172;2022-08-02T03:33:46;20.30;99.90
24254;DHT22;12381;51.152;4.172;2022-08-02T03:36:16;20.30;99.90
24254;DHT22;12381;51.152;4.172;2022-08-02T03:38:45;20.30;99.90
24254;DHT22;12381;51.152;4.172;2022-08-02T03:41:13;20.20;99.90
24254;DHT22;12381;51.152;4.172;2022-08-02T03:43:40;20.20;99.90
24254;DHT22;12381;51.152;4.172;2022-08-02T03:46:08;20.20;99.90
24254;DHT22;12381;51.152;4.172;2022-08-02T03:48:36;20.20;99.90
24254;DHT22;12381;51.152;4.172;2022-08-02T03:51:02;20.20;99.90
24254;DHT22;12381;51.152;4.172;2022-08-02T03:53:29;20.30;99.90
24254;DHT22;12381;51.152;4.172;2022-08-02T03:55:55;20.20;99.90
24254;DHT22;12381;51.152;4.172;2022-08-02T03:58:22;20.20;99.90
24254;DHT22;12381;51.152;4.172;2022-08-02T04:00:48;20.30;99.90
24254;DHT22;12381;51.152;4.172;2022-08-02T04:03:14;20.20;99.90
24254;DHT22;12381;51.152;4.172;2022-08-02T04:05:40;20.20;99.90
24254;DHT22;12381;51.152;4.172;2022-08-02T04:08:07;20.10;99.90
24254;DHT22;12381;51.152;4.172;2022-08-02T04:10:32;20.10;99.90
24254;DHT22;12381;51.152;4.172;2022-08-02T04:13:18;20.10;99.90
24254;DHT22;12381;51.152;4.172;2022-08-02T04:15:45;20.10;99.90
24254;DHT22;12381;51.152;4.172;2022-08-02T04:18:15;20.00;99.90
24254;DHT22;12381;51.152;4.172;2022-08-02T04:20:42;20.10;99.90
24254;DHT22;12381;51.152;4.172;2022-08-02T04:23:11;20.10;99.90
24254;DHT22;12381;51.152;4.172;2022-08-02T04:25:38;20.10;99.90
24254;DHT22;12381;51.152;4.172;2022-08-02T04:28:05;20.20;99.90
24254;DHT22;12381;51.152;4.172;2022-08-02T04:30:31;20.10;99.90
24254;DHT22;12381;51.152;4.172;2022-08-02T04:32:58;20.20;99.90
24254;DHT22;12381;51.152;4.172;2022-08-02T04:35:23;20.10;99.90
24254;DHT22;12381;51.152;4.172;2022-08-02T04:37:50;20.20;99.90
24254;DHT22;12381;51.152;4.172;2022-08-02T04:40:16;20.20;99.90
24254;DHT22;12381;51.152;4.172;2022-08-02T04:42:42;20.20;99.90
24254;DHT22;12381;51.152;4.172;2022-08-02T04:45:08;20.20;99.90
24254;DHT22;12381;51.152;4.172;2022-08-02T04:47:35;20.20;99.90
24254;DHT22;12381;51.152;4.172;2022-08-02T04:50:01;20.20;99.90
24254;DHT22;12381;51.152;4.172;2022-08-02T04:52:26;20.20;99.90
24254;DHT22;12381;51.152;4.172;2022-08-02T04:54:52;20.20;99.90
24254;DHT22;12381;51.152;4.172;2022-08-02T04:57:19;20.20;99.90
24254;DHT22;12381;51.152;4.172;2022-08-02T05:00:05;20.20;99.90
24254;DHT22;12381;51.152;4.172;2022-08-02T05:02:32;20.30;99.90
24254;DHT22;12381;51.152;4.172;2022-08-02T05:04:57;20.30;99.90
24254;DHT22;12381;51.152;4.172;2022-08-02T05:07:23;20.30;99.90
24254;DHT22;12381;51.152;4.172;2022-08-02T05:09:49;20.40;99.90
24254;DHT22;12381;51.152;4.172;2022-08-02T05:12:14;20.50;99.90
24254;DHT22;12381;51.152;4.172;2022-08-02T05:14:40;20.40;99.90
24254;DHT22;12381;51.152;4.172;2022-08-02T05:17:06;20.30;99.90
24254;DHT22;12381;51.152;4.172;2022-08-02T05:19:31;20.20;99.90
24254;DHT22;12381;51.152;4.172;2022-08-02T05:21:57;20.30;99.90
24254;DHT22;12381;51.152;4.172;2022-08-02T05:24:23;20.40;99.90
24254;DHT22;12381;51.152;4.172;2022-08-02T05:26:48;20.40;99.90
24254;DHT22;12381;51.152;4.172;2022-08-02T05:29:15;20.40;99.90
24254;DHT22;12381;51.152;4.172;2022-08-02T05:31:41;20.50;99.90
24254;DHT22;12381;51.152;4.172;2022-08-02T05:34:06;20.50;99.90
24254;DHT22;12381;51.152;4.172;2022-08-02T05:36:32;20.50;99.90
24254;DHT22;12381;51.152;4.172;2022-08-02T05:38:58;20.50;99.90
24254;DHT22;12381;51.152;4.172;2022-08-02T05:41:24;20.50;99.90
24254;DHT22;12381;51.152;4.172;2022-08-02T05:43:49;20.60;99.90
24254;DHT22;12381;51.152;4.172;2022-08-02T05:46:15;20.60;99.90
24254;DHT22;12381;51.152;4.172;2022-08-02T05:48:41;20.60;99.90
24254;DHT22;12381;51.152;4.172;2022-08-02T05:51:11;20.60;99.90
24254;DHT22;12381;51.152;4.172;2022-08-02T05:57:38;20.60;99.90
24254;DHT22;12381;51.152;4.172;2022-08-02T05:59:46;20.70;99.90
24254;DHT22;12381;51.152;4.172;2022-08-02T06:05:03;20.70;99.90
24254;DHT22;12381;51.152;4.172;2022-08-02T06:07:34;20.90;99.90
24254;DHT22;12381;51.152;4.172;2022-08-02T06:10:03;20.90;99.90
24254;DHT22;12381;51.152;4.172;2022-08-02T06:12:31;21.00;99.90
24254;DHT22;12381;51.152;4.172;2022-08-02T06:14:58;21.00;99.90
24254;DHT22;12381;51.152;4.172;2022-08-02T06:17:25;21.00;99.90
24254;DHT22;12381;51.152;4.172;2022-08-02T06:19:55;20.90;99.90
24254;DHT22;12381;51.152;4.172;2022-08-02T06:22:25;21.00;99.90
24254;DHT22;12381;51.152;4.172;2022-08-02T06:24:53;21.00;99.90
24254;DHT22;12381;51.152;4.172;2022-08-02T06:27:20;21.10;99.90
24254;DHT22;12381;51.152;4.172;2022-08-02T06:29:47;21.20;99.90
24254;DHT22;12381;51.152;4.172;2022-08-02T06:32:17;21.30;99.90
24254;DHT22;12381;51.152;4.172;2022-08-02T06:34:44;21.20;99.90
24254;DHT22;12381;51.152;4.172;2022-08-02T06:37:26;21.20;99.90
24254;DHT22;12381;51.152;4.172;2022-08-02T06:40:07;21.20;99.90
24254;DHT22;12381;51.152;4.172;2022-08-02T06:43:05;21.30;99.90
24254;DHT22;12381;51.152;4.172;2022-08-02T06:45:32;21.40;99.90
24254;DHT22;12381;51.152;4.172;2022-08-02T06:47:58;21.30;99.90
24254;DHT22;12381;51.152;4.172;2022-08-02T06:50:24;21.30;99.90
24254;DHT22;12381;51.152;4.172;2022-08-02T06:52:50;21.30;99.90
24254;DHT22;12381;51.152;4.172;2022-08-02T06:55:16;21.30;99.90
24254;DHT22;12381;51.152;4.172;2022-08-02T06:57:42;21.40;99.90
24254;DHT22;12381;51.152;4.172;2022-08-02T07:00:08;21.40;99.90
24254;DHT22;12381;51.152;4.172;2022-08-02T07:02:37;21.50;99.90
24254;DHT22;12381;51.152;4.172;2022-08-02T07:05:04;21.60;99.90
24254;DHT22;12381;51.152;4.172;2022-08-02T07:07:30;21.60;99.90
24254;DHT22;12381;51.152;4.172;2022-08-02T07:09:57;21.60;99.90
24254;DHT22;12381;51.152;4.172;2022-08-02T07:12:23;21.60;99.90
24254;DHT22;12381;51.152;4.172;2022-08-02T07:14:49;21.60;99.90
24254;DHT22;12381;51.152;4.172;2022-08-02T07:17:14;21.60;99.90
24254;DHT22;12381;51.152;4.172;2022-08-02T07:19:40;21.80;99.90
24254;DHT22;12381;51.152;4.172;2022-08-02T07:22:06;21.80;99.90
24254;DHT22;12381;51.152;4.172;2022-08-02T07:24:32;21.90;99.90
24254;DHT22;12381;51.152;4.172;2022-08-02T07:26:58;21.80;99.90
24254;DHT22;12381;51.152;4.172;2022-08-02T07:29:24;21.80;99.90
24254;DHT22;12381;51.152;4.172;2022-08-02T07:31:50;21.80;99.90
24254;DHT22;12381;51.152;4.172;2022-08-02T07:34:16;21.80;99.90
24254;DHT22;12381;51.152;4.172;2022-08-02T07:36:41;21.90;99.90
24254;DHT22;12381;51.152;4.172;2022-08-02T07:39:07;22.00;99.90
24254;DHT22;12381;51.152;4.172;2022-08-02T07:41:33;22.10;99.90
24254;DHT22;12381;51.152;4.172;2022-08-02T07:43:59;22.10;99.90
24254;DHT22;12381;51.152;4.172;2022-08-02T07:46:25;22.20;99.90
24254;DHT22;12381;51.152;4.172;2022-08-02T07:48:51;22.20;99.90
24254;DHT22;12381;51.152;4.172;2022-08-02T07:51:22;22.20;99.90
24254;DHT22;12381;51.152;4.172;2022-08-02T07:53:48;22.30;99.90
24254;DHT22;12381;51.152;4.172;2022-08-02T07:56:14;22.50;99.90
24254;DHT22;12381;51.152;4.172;2022-08-02T07:58:42;22.50;99.90
24254;DHT22;12381;51.152;4.172;2022-08-02T08:01:09;22.40;99.90
24254;DHT22;12381;51.152;4.172;2022-08-02T08:03:34;22.40;99.90
24254;DHT22;12381;51.152;4.172;2022-08-02T08:06:01;22.60;99.90
24254;DHT22;12381;51.152;4.172;2022-08-02T08:08:26;22.60;99.90
24254;DHT22;12381;51.152;4.172;2022-08-02T08:10:52;22.50;99.90
24254;DHT22;12381;51.152;4.172;2022-08-02T08:13:18;22.50;99.90
24254;DHT22;12381;51.152;4.172;2022-08-02T08:15:43;22.60;99.90
24254;DHT22;12381;51.152;4.172;2022-08-02T08:18:09;22.60;99.90
24254;DHT22;12381;51.152;4.172;2022-08-02T08:20:36;22.60;99.90
24254;DHT22;12381;51.152;4.172;2022-08-02T08:23:02;22.70;99.90
24254;DHT22;12381;51.152;4.172;2022-08-02T08:25:27;22.80;99.90
24254;DHT22;12381;51.152;4.172;2022-08-02T08:27:54;22.90;99.90
24254;DHT22;12381;51.152;4.172;2022-08-02T08:30:20;23.00;99.90
24254;DHT22;12381;51.152;4.172;2022-08-02T08:32:46;23.10;99.90
24254;DHT22;12381;51.152;4.172;2022-08-02T08:35:12;23.20;99.90
24254;DHT22;12381;51.152;4.172;2022-08-02T08:37:38;23.20;99.90
24254;DHT22;12381;51.152;4.172;2022-08-02T08:40:06;23.30;99.90
24254;DHT22;12381;51.152;4.172;2022-08-02T08:42:33;23.40;99.90
24254;DHT22;12381;51.152;4.172;2022-08-02T08:45:00;23.50;99.90
24254;DHT22;12381;51.152;4.172;2022-08-02T08:47:50;23.40;99.90
24254;DHT22;12381;51.152;4.172;2022-08-02T08:50:19;23.40;99.90
24254;DHT22;12381;51.152;4.172;2022-08-02T08:55:29;23.60;99.90
24254;DHT22;12381;51.152;4.172;2022-08-02T08:57:55;23.70;99.60
24254;DHT22;12381;51.152;4.172;2022-08-02T09:00:22;23.70;99.90
24254;DHT22;12381;51.152;4.172;2022-08-02T09:02:49;23.80;99.90
24254;DHT22;12381;51.152;4.172;2022-08-02T09:05:16;23.80;99.90
24254;DHT22;12381;51.152;4.172;2022-08-02T09:07:42;23.90;99.60
24254;DHT22;12381;51.152;4.172;2022-08-02T09:13:25;24.00;99.00
24254;DHT22;12381;51.152;4.172;2022-08-02T09:15:59;24.00;99.30
24254;DHT22;12381;51.152;4.172;2022-08-02T09:20:58;24.30;98.00
24254;DHT22;12381;51.152;4.172;2022-08-02T09:23:25;24.20;98.50
24254;DHT22;12381;51.152;4.172;2022-08-02T09:26:01;24.40;97.60
24254;DHT22;12381;51.152;4.172;2022-08-02T09:28:28;24.60;97.10
24254;DHT22;12381;51.152;4.172;2022-08-02T09:31:08;24.60;97.10
24254;DHT22;12381;51.152;4.172;2022-08-02T09:33:35;24.60;97.70
24254;DHT22;12381;51.152;4.172;2022-08-02T09:36:04;24.80;97.00
24254;DHT22;12381;51.152;4.172;2022-08-02T09:38:31;24.80;95.70
24254;DHT22;12381;51.152;4.172;2022-08-02T09:40:59;24.80;96.00
24254;DHT22;12381;51.152;4.172;2022-08-02T09:43:39;25.00;95.70
24254;DHT22;12381;51.152;4.172;2022-08-02T09:46:29;25.10;95.70
24254;DHT22;12381;51.152;4.172;2022-08-02T09:54:16;25.40;96.30
24254;DHT22;12381;51.152;4.172;2022-08-02T09:56:48;25.50;96.60
24254;DHT22;12381;51.152;4.172;2022-08-02T09:59:14;25.70;95.20
24254;DHT22;12381;51.152;4.172;2022-08-02T10:01:42;25.60;95.70
24254;DHT22;12381;51.152;4.172;2022-08-02T10:04:11;25.70;96.30
24254;DHT22;12381;51.152;4.172;2022-08-02T10:06:41;25.90;95.80
24254;DHT22;12381;51.152;4.172;2022-08-02T10:09:10;26.10;95.90
24254;DHT22;12381;51.152;4.172;2022-08-02T10:11:39;26.30;94.90
24254;DHT22;12381;51.152;4.172;2022-08-02T10:14:08;26.20;94.90
24254;DHT22;12381;51.152;4.172;2022-08-02T10:16:39;26.20;94.90
24254;DHT22;12381;51.152;4.172;2022-08-02T10:19:05;26.10;95.40
24254;DHT22;12381;51.152;4.172;2022-08-02T10:21:47;26.20;94.70
24254;DHT22;12381;51.152;4.172;2022-08-02T10:24:22;26.30;95.00
24254;DHT22;12381;51.152;4.172;2022-08-02T10:26:53;26.30;95.50
24254;DHT22;12381;51.152;4.172;2022-08-02T10:29:42;26.50;94.90
24254;DHT22;12381;51.152;4.172;2022-08-02T10:32:25;26.80;95.10
24254;DHT22;12381;51.152;4.172;2022-08-02T10:35:07;27.20;95.00
24254;DHT22;12381;51.152;4.172;2022-08-02T10:37:35;27.50;94.30
24254;DHT22;12381;51.152;4.172;2022-08-02T10:40:04;27.70;93.50
24254;DHT22;12381;51.152;4.172;2022-08-02T10:42:45;27.90;93.00
24254;DHT22;12381;51.152;4.172;2022-08-02T10:45:21;28.10;93.20
24254;DHT22;12381;51.152;4.172;2022-08-02T10:48:07;28.20;93.00
24254;DHT22;12381;51.152;4.172;2022-08-02T10:53:31;28.00;92.90
24254;DHT22;12381;51.152;4.172;2022-08-02T10:56:03;28.00;93.60
24254;DHT22;12381;51.152;4.172;2022-08-02T10:58:30;28.20;93.30
24254;DHT22;12381;51.152;4.172;2022-08-02T11:01:04;28.30;92.30
24254;DHT22;12381;51.152;4.172;2022-08-02T11:06:11;28.40;93.70
24254;DHT22;12381;51.152;4.172;2022-08-02T11:08:37;28.50;93.80
24254;DHT22;12381;51.152;4.172;2022-08-02T11:19:25;29.00;93.20
24254;DHT22;12381;51.152;4.172;2022-08-02T11:22:11;29.10;92.40
24254;DHT22;12381;51.152;4.172;2022-08-02T11:24:39;29.20;91.70
24254;DHT22;12381;51.152;4.172;2022-08-02T11:27:07;29.20;92.40
24254;DHT22;12381;51.152;4.172;2022-08-02T11:29:41;28.80;91.50
24254;DHT22;12381;51.152;4.172;2022-08-02T11:32:21;28.70;92.30
24254;DHT22;12381;51.152;4.172;2022-08-02T11:34:49;28.80;92.40
24254;DHT22;12381;51.152;4.172;2022-08-02T11:37:31;29.00;92.80
24254;DHT22;12381;51.152;4.172;2022-08-02T11:39:59;29.30;92.70
24254;DHT22;12381;51.152;4.172;2022-08-02T11:42:35;29.40;91.10
24254;DHT22;12381;51.152;4.172;2022-08-02T11:45:02;29.40;91.30
24254;DHT22;12381;51.152;4.172;2022-08-02T11:47:28;29.50;91.90
24254;DHT22;12381;51.152;4.172;2022-08-02T11:50:09;29.50;91.40
24254;DHT22;12381;51.152;4.172;2022-08-02T11:52:35;29.60;91.30
24254;DHT22;12381;51.152;4.172;2022-08-02T11:55:02;29.50;91.60
24254;DHT22;12381;51.152;4.172;2022-08-02T11:57:28;29.50;92.30
24254;DHT22;12381;51.152;4.172;2022-08-02T11:59:55;29.40;91.80
24254;DHT22;12381;51.152;4.172;2022-08-02T12:02:24;29.50;92.10
24254;DHT22;12381;51.152;4.172;2022-08-02T12:04:58;29.40;92.00
24254;DHT22;12381;51.152;4.172;2022-08-02T12:07:32;29.30;92.50
24254;DHT22;12381;51.152;4.172;2022-08-02T12:10:03;29.50;91.80
24254;DHT22;12381;51.152;4.172;2022-08-02T12:12:30;29.60;92.00
24254;DHT22;12381;51.152;4.172;2022-08-02T12:14:55;29.50;92.00
24254;DHT22;12381;51.152;4.172;2022-08-02T12:17:26;29.50;92.70
24254;DHT22;12381;51.152;4.172;2022-08-02T12:20:11;29.60;92.20
24254;DHT22;12381;51.152;4.172;2022-08-02T12:22:38;29.50;92.60
24254;DHT22;12381;51.152;4.172;2022-08-02T12:25:16;29.50;92.40
24254;DHT22;12381;51.152;4.172;2022-08-02T12:27:42;29.50;92.90
24254;DHT22;12381;51.152;4.172;2022-08-02T12:30:14;29.50;92.50
24254;DHT22;12381;51.152;4.172;2022-08-02T12:32:40;29.60;92.90
24254;DHT22;12381;51.152;4.172;2022-08-02T12:35:14;29.70;92.40
24254;DHT22;12381;51.152;4.172;2022-08-02T12:37:42;29.70;93.10
24254;DHT22;12381;51.152;4.172;2022-08-02T12:42:53;29.70;93.20
24254;DHT22;12381;51.152;4.172;2022-08-02T12:45:19;29.70;92.50
24254;DHT22;12381;51.152;4.172;2022-08-02T12:47:50;29.70;93.10
24254;DHT22;12381;51.152;4.172;2022-08-02T12:52:47;29.60;93.40
24254;DHT22;12381;51.152;4.172;2022-08-02T12:55:22;29.70;93.80
24254;DHT22;12381;51.152;4.172;2022-08-02T12:58:01;29.80;93.40
24254;DHT22;12381;51.152;4.172;2022-08-02T13:00:35;29.90;92.70
24254;DHT22;12381;51.152;4.172;2022-08-02T13:03:02;30.10;92.90
24254;DHT22;12381;51.152;4.172;2022-08-02T13:05:29;29.80;93.20
24254;DHT22;12381;51.152;4.172;2022-08-02T13:07:55;29.90;93.10
24254;DHT22;12381;51.152;4.172;2022-08-02T13:10:22;30.10;92.70
24254;DHT22;12381;51.152;4.172;2022-08-02T13:12:48;30.00;92.90
24254;DHT22;12381;51.152;4.172;2022-08-02T13:15:14;30.00;93.30
24254;DHT22;12381;51.152;4.172;2022-08-02T13:17:40;30.00;93.10
24254;DHT22;12381;51.152;4.172;2022-08-02T13:20:07;30.10;93.20
24254;DHT22;12381;51.152;4.172;2022-08-02T13:22:33;30.10;93.00
24254;DHT22;12381;51.152;4.172;2022-08-02T13:24:59;30.20;93.20
24254;DHT22;12381;51.152;4.172;2022-08-02T13:27:25;30.00;93.10
24254;DHT22;12381;51.152;4.172;2022-08-02T13:29:52;30.10;93.30
24254;DHT22;12381;51.152;4.172;2022-08-02T13:32:18;30.10;92.80
24254;DHT22;12381;51.152;4.172;2022-08-02T13:34:44;30.10;93.10
24254;DHT22;12381;51.152;4.172;2022-08-02T13:37:10;30.10;93.30
24254;DHT22;12381;51.152;4.172;2022-08-02T13:39:36;30.20;93.40
24254;DHT22;12381;51.152;4.172;2022-08-02T13:42:01;30.30;93.30
24254;DHT22;12381;51.152;4.172;2022-08-02T13:44:27;30.50;93.40
24254;DHT22;12381;51.152;4.172;2022-08-02T13:46:53;30.60;92.90
24254;DHT22;12381;51.152;4.172;2022-08-02T13:49:18;30.60;92.50
24254;DHT22;12381;51.152;4.172;2022-08-02T13:51:45;30.40;93.00
24254;DHT22;12381;51.152;4.172;2022-08-02T13:54:10;30.30;93.30
24254;DHT22;12381;51.152;4.172;2022-08-02T13:56:36;30.30;93.60
24254;DHT22;12381;51.152;4.172;2022-08-02T13:59:02;30.40;92.90
24254;DHT22;12381;51.152;4.172;2022-08-02T14:01:28;30.30;93.00
24254;DHT22;12381;51.152;4.172;2022-08-02T14:03:54;30.30;93.30
24254;DHT22;12381;51.152;4.172;2022-08-02T14:06:23;30.40;93.10
24254;DHT22;12381;51.152;4.172;2022-08-02T14:08:48;30.30;93.00
24254;DHT22;12381;51.152;4.172;2022-08-02T14:11:14;30.20;92.90
24254;DHT22;12381;51.152;4.172;2022-08-02T14:13:40;30.10;93.50
24254;DHT22;12381;51.152;4.172;2022-08-02T14:16:05;30.10;94.10
24254;DHT22;12381;51.152;4.172;2022-08-02T14:18:31;30.20;93.70
24254;DHT22;12381;51.152;4.172;2022-08-02T14:20:57;30.00;93.50
24254;DHT22;12381;51.152;4.172;2022-08-02T14:23:22;29.90;94.00
24254;DHT22;12381;51.152;4.172;2022-08-02T14:25:48;30.10;93.60
24254;DHT22;12381;51.152;4.172;2022-08-02T14:28:14;30.30;93.60
24254;DHT22;12381;51.152;4.172;2022-08-02T14:30:40;30.40;93.70
24254;DHT22;12381;51.152;4.172;2022-08-02T14:33:06;30.40;93.60
24254;DHT22;12381;51.152;4.172;2022-08-02T14:35:32;30.40;93.30
24254;DHT22;12381;51.152;4.172;2022-08-02T14:37:58;30.60;93.20
24254;DHT22;12381;51.152;4.172;2022-08-02T14:40:23;30.50;94.10
24254;DHT22;12381;51.152;4.172;2022-08-02T14:42:51;30.60;93.70
24254;DHT22;12381;51.152;4.172;2022-08-02T14:45:17;30.60;94.10
24254;DHT22;12381;51.152;4.172;2022-08-02T14:47:43;30.70;94.00
24254;DHT22;12381;51.152;4.172;2022-08-02T14:50:10;30.70;93.30
24254;DHT22;12381;51.152;4.172;2022-08-02T14:52:36;30.70;93.80
24254;DHT22;12381;51.152;4.172;2022-08-02T14:55:02;30.90;92.80
24254;DHT22;12381;51.152;4.172;2022-08-02T14:57:30;31.00;93.00
24254;DHT22;12381;51.152;4.172;2022-08-02T14:59:56;30.90;93.60
24254;DHT22;12381;51.152;4.172;2022-08-02T15:02:28;30.90;92.90
24254;DHT22;12381;51.152;4.172;2022-08-02T15:04:53;31.00;93.50
24254;DHT22;12381;51.152;4.172;2022-08-02T15:07:19;31.00;93.00
24254;DHT22;12381;51.152;4.172;2022-08-02T15:09:45;30.90;93.00
24254;DHT22;12381;51.152;4.172;2022-08-02T15:12:10;30.80;92.80
24254;DHT22;12381;51.152;4.172;2022-08-02T15:14:37;30.70;93.20
24254;DHT22;12381;51.152;4.172;2022-08-02T15:17:04;30.80;92.80
24254;DHT22;12381;51.152;4.172;2022-08-02T15:19:30;30.80;93.30
24254;DHT22;12381;51.152;4.172;2022-08-02T15:21:56;30.70;93.20
24254;DHT22;12381;51.152;4.172;2022-08-02T15:24:21;30.60;93.40
24254;DHT22;12381;51.152;4.172;2022-08-02T15:26:47;30.60;93.50
24254;DHT22;12381;51.152;4.172;2022-08-02T15:29:18;30.60;93.20
24254;DHT22;12381;51.152;4.172;2022-08-02T15:31:43;30.50;93.40
24254;DHT22;12381;51.152;4.172;2022-08-02T15:34:09;30.50;93.60
24254;DHT22;12381;51.152;4.172;2022-08-02T15:36:35;30.40;93.20
24254;DHT22;12381;51.152;4.172;2022-08-02T15:39:04;30.50;93.10
24254;DHT22;12381;51.152;4.172;2022-08-02T15:41:30;30.60;93.40
24254;DHT22;12381;51.152;4.172;2022-08-02T15:43:56;30.60;93.80
24254;DHT22;12381;51.152;4.172;2022-08-02T15:46:22;30.50;93.80
24254;DHT22;12381;51.152;4.172;2022-08-02T15:48:47;30.60;93.50
24254;DHT22;12381;51.152;4.172;2022-08-02T15:51:13;30.60;93.40
24254;DHT22;12381;51.152;4.172;2022-08-02T15:53:38;30.60;93.40
24254;DHT22;12381;51.152;4.172;2022-08-02T15:56:04;30.50;93.10
24254;DHT22;12381;51.152;4.172;2022-08-02T15:58:31;30.30;93.20
24254;DHT22;12381;51.152;4.172;2022-08-02T16:00:56;30.20;93.50
24254;DHT22;12381;51.152;4.172;2022-08-02T16:03:22;30.20;93.50
24254;DHT22;12381;51.152;4.172;2022-08-02T16:05:48;30.10;93.40
24254;DHT22;12381;51.152;4.172;2022-08-02T16:08:13;30.10;93.50
24254;DHT22;12381;51.152;4.172;2022-08-02T16:10:39;30.30;93.10
24254;DHT22;12381;51.152;4.172;2022-08-02T16:13:06;30.40;93.10
24254;DHT22;12381;51.152;4.172;2022-08-02T16:15:50;30.50;92.90
24254;DHT22;12381;51.152;4.172;2022-08-02T16:18:16;30.50;93.30
24254;DHT22;12381;51.152;4.172;2022-08-02T16:20:41;30.60;93.10
24254;DHT22;12381;51.152;4.172;2022-08-02T16:23:07;30.60;93.50